Les résultats vous sont offerts par

Télécharger en pdf

 

Le tour des Commères - 25 km - Sirod - 29/10/2017 - 214 classés / 227 inscrits

 

 

Ordre Scratch Nom Prénom Dossard Temps Catégorie Club
1 1  LALOUETTE  LAURENT 103 01:54:28 SE  
2 2  BOUILLET  MICKAEL 170 01:54:29 M1  RUNNING CONSEIL
3 3  BOURGEOIS  JEAN PAUL 88 01:56:49 M2  ESPRIT TRAIL AMIS
4 4  BOURGEOIS  IVAN 126 01:57:55 M1  LONS ATHLE 39
5 5  BOUILLET  CEDRIC 94 01:58:13 M1  RUNNING CONSEIL 39
6 6  PRIN  STEVE 78 01:58:47 SE  SPORT PASSION PREMANON
7 7  PASERO  MATHIEU 328 02:02:13 SE  
8 8  BOURDIN  JEROME 194 02:04:05 SE  CLUB NAUTIQUE PONTARLIER TRIATHLON
9 9  MANCHE  MATHIEU 98 02:04:22 SE  
10 10  CHAUVIN  ALEXANDRE 30 02:04:29 SE  S/L EJCA CHAMPAGNOLE
11 11  BOURGEOIS  JULIEN 62 02:05:02 SE  TEAM LA GAUDINE
12 12  TOUSSAINT  VINCENT 145 02:05:30 SE  RUNNING CONSEIL 39
13 13  VANDELLE  VALENTIN 315 02:06:25 JU  
14 14  BENAY  CHRISTOPHE 322 02:07:19 M2  
15 15  PIARD  GUILLAUME 122 02:07:55 SE  
16 16  GARBELLOTTO  LUCAS 99 02:08:53 SE  FERRIERES SPORT ATHLE
17 17  VICHARD  LAURENT 307 02:09:32 M1  
18 18  MENESTRIER  BENOIT 113 02:09:33 M1  
19 19  BIENAIME  ALEX 1 02:11:18 SE  VO3 MAX
20 20  BOUDAY  IVAN 306 02:14:14 M1  
21 21  CAMELIN  THEO 140 02:16:16 ES  
22 22  GAILLARD  JULIEN 115 02:16:50 SE  RUNNING CONSEIL 39
23 24  MAGNIN  FRANCOIS 69 02:19:17 SE  TEAM SPORT 2000 MONTMOROT
24 26  BAILLY  FLORIAN 111 02:21:41 SE  TRILION BELFORT
25 27  DENIAU  CEDRIC 119 02:22:26 SE  
26 28  GARNIER  MARC 65 02:22:35 SE  
27 29  VILLET  THIBAUD 51 02:22:42 SE  
28 30  OLIVIER  RAPHAEL 29 02:22:52 M1  CHAMPA TRAIL
29 32  CALLIER  ROBERT 321 02:23:26 M3  
30 33  MARGUET  NICOLAS 179 02:23:36 SE  LES AMIS DE LA NATURE
31 34  KHALFI  BRUNO 193 02:24:06 M2  HAUT JURA VO3 MAX
32 35  BONIN  ALEXANDRE 116 02:24:09 SE  TRIATH'LONS
33 37  RICHARD  LAURENT 46 02:24:19 SE  MY TRIBE
34 38  VERGEY  FLORENT 159 02:24:34 SE  
35 39  TILLIER  MICKAEL 189 02:24:44 M1  
36 40  CHAPUIS  SEBASTIEN 5 02:25:16 SE  TRI TEAM VALLEE DE JOUX
37 41  DE PASQUALIN  LAURENT 187 02:27:01 SE  
38 42  VILLET  GUILLAUME 36 02:27:09 SE  
39 43  DANGUY  LAURIC 191 02:28:00 SE  RUNNING CONSEIL
40 44  MICHALET  PIERRE OLIVIER 93 02:28:05 ES  
41 45  GRESSET  YANN 309 02:28:59 M1  
42 46  SAMLAL  NIZAR 26 02:29:07 SE  
43 47  ALVES  DANIEL 166 02:29:14 SE  
44 48  GARIN LAUREL  NICOLAS 38 02:29:33 SE  
45 49  HESSE  NICOLAS 175 02:30:32 SE  
46 50  MOURIER  FRANCK 130 02:31:43 M1  ALL JURA TRAIL
47 52  ECOIFFIER  ARNAUD 329 02:31:57 SE  
48 53  MALESSARD  MATHIEU 185 02:32:02 M1  LONS ATHLE 39
49 54  GIRARD  STEPHANE 312 02:32:14 M1  
50 55  PETITHUGUENIN  LAURENT 71 02:32:33 M1  
51 56  SARTORIS  DAMIEN 108 02:33:36 SE  
52 57  PYONBOUTRIT  AURELIEN 128 02:33:42 SE  LONS ATHLE 39
53 58  HENRIET  DIDIER 180 02:33:48 M2  
54 59  PELLETIER  CHRISTIAN 330 02:33:53 M2  
55 60  MAREE  JULIEN 192 02:33:58 M1  RUNNING CONSEIL
56 61  BARBAUD  VINCENT 143 02:34:30 M1  CHAMPAGNOLE
57 62  LONCHAMPT  FRANCK 163 02:34:40 M1  SKI CLUB PREMANON
58 63  FERREUX  RAPHAEL 63 02:34:45 M1  TEAM LA GAUDINE
59 64  FLAHAUT  MICHAEL 66 02:35:03 M1  
60 65  PEGUILLET  THOMAS 304 02:36:03 SE  
61 67  BAUD  MATHIEU 333 02:36:25 SE  
62 68  GROSJEAN  LUDOVIC 124 02:37:50 SE  TEAM GAB ET SPORT BESANCON
63 69  BOYARD  ERIC 156 02:38:06 M1  
64 70  TONNER  JEAN PIERRE 149 02:38:29 M2  
65 71  PAGET GOY  CHARLY 37 02:38:29 M1  SKI CLUB GRANDVAUX
66 72  RAMAUX  PATRICE 160 02:39:18 M1  
67 73  GONZALES  SEBASTIEN 305 02:39:32 M1  
68 74  BOTTAZZO  ARNAUD 73 02:39:40 M1  BOTTAZZO
69 75  LACROIX  GABRIEL 182 02:40:31 M3  
70 76  MARTIN  BENJAMIN 104 02:40:58 SE  
71 78  GAVROY  KEVIN 188 02:41:09 SE  
72 79  TAMBORINI  POLO 230 02:41:23 M1  
73 80  PARIS  OLIVIER 87 02:41:37 SE  TRIATH'LONS
74 81  SCHIAVONE  EMMANUEL 84 02:41:59 M2  
75 82  BOURGEOIS  JEAN MARIE 64 02:42:07 M3  TEAM LA GAUDINE
76 84  PILLOIX  BAPTISTE 167 02:42:31 JU  
77 85  GUILLAUME  PATRICK 74 02:42:50 M3  TRIATH'LONS
78 86  BAILLY  NOEL 68 02:42:50 M3  ALL JURA TRAIL
79 87  GRESSET  FABIEN 118 02:43:45 M1  
80 88  LARDERET  THIERRY 152 02:44:08 M2  ALL SECTION TRAIL
81 89  FOURNIER  SYLVAIN 3 02:45:05 M1  
82 95  HALBERT  FRANCOIS 20 02:47:20 SE  JURA SUD BIKE
83 97  MICHAUD  FREDERIC 318 02:47:58 M2  
84 99  MICHEL  GREGORY 75 02:48:19 M1  S/L EJCA CHAMPAGNOLE
85 100  MASSACRET  GREGOIRE 41 02:48:29 M1  
86 101  BELIARD  BRUNO 331 02:48:32 M3  
87 102  RUFENACHT  BASTIEN 155 02:48:46 ES  
88 103  ROULIN  PAUL 39 02:49:03 SE  
89 104  CARRE  DAVID 323 02:49:10 M1  
90 105  FUSARO  HENRI 50 02:49:49 M2  
91 106  BURRI  DIDIER 81 02:49:54 M2  
92 107  TINLOUT  REGIS 133 02:49:54 M1  
93 108  WIDMER  SEBASTIEN 311 02:49:58 M1  
94 109  DUBOZ  MICHEL 151 02:50:07 M3  ALL JURA TRAIL
95 110  PERRARD  ANTOINE 28 02:51:22 SE  LMA
96 111  MANDRILLON  LAURENT 45 02:51:29 M1  ALL JURA TRAIL
97 112  FUMEY  JEAN MARC 142 02:51:34 M1  
98 113  LOCATELLI  GUILLAUME 80 02:51:41 SE  
99 114  JADIN  YOANN 106 02:51:42 SE  
100 115  BOURGEOIS  JUSTIN 95 02:52:07 SE  
101 116  JOUAUX  RUDY 40 02:52:09 M1  
102 117  FALBO  ALEXANDRE 161 02:52:14 M2  
103 118  BOOS  JEAN PASCAL 19 02:52:38 M1  JURATHERAPIE
104 119  MORENO LOPEZ  NORBERT 97 02:52:42 SE  
105 120  PROST  ETIENNE 303 02:53:08 SE  
106 121  GUYARD  AURELIEN 162 02:53:30 SE  
107 122  GUERIN  JEREMY 326 02:53:57 SE  
108 123  BRETIN  MICKAEL 165 02:54:01 SE  
109 124  AKKAYA  ERDOGAN 144 02:54:01 M3  SAPEUR POMPIERS SALINS
110 125  PERNIN  FABRICE 171 02:57:30 M1  
111 126  VAGNEUR  MICHEL 35 02:57:57 M2  
112 128  MONROLIN  JOHANN 319 02:58:53 M1  
113 129  JEUNET  OLIVIER 110 02:59:26 SE  
114 133  MECHIGHEL  CHRISTIAN 72 03:01:01 M2  RING ATHLETIQUE LEDONIEN
115 134  ROUSSELLE  DOMINIQUE 16 03:01:19 M2  PIEDS NICKELES
116 135  CANTOT  CYRIL 109 03:01:51 M1  
117 136  LOUVAT  ALEXANDRE 190 03:01:52 ES  
118 137  PETOT  BENJAMIN 92 03:01:55 SE  
119 138  HALBERT  CHRISTIAN 15 03:02:03 M3  A.C.MARIN
120 140  BLACHON  JEAN LUC 168 03:02:59 M1  
121 141  VACELET  BRUNO 21 03:03:13 M1  
122 142  LAZRAK  KHALID 13 03:03:46 M1  
123 143  BOUAMRA  STEEVE 313 03:04:02 M1  
124 144  VAUZELLE  ALEXANDRE 43 03:04:41 M1  
125 146  DEFFRADAS  PIERRE ALEXANDRE 48 03:04:43 SE  
126 148  KOULMANN  JEAN ARNAUD 178 03:04:49 M1  
127 149  JEANNEY  CHRISTIAN 177 03:04:59 M2  ESPRIT TRAIL AMIS
128 152  GIRARDOT  FABRICE 83 03:05:20 M2  
129 154  VUILLERMOZ  RICHARD 59 03:05:39 M1  
130 156  GENEVOIX  REGIS 157 03:06:33 M2  
131 159  DUBREZ  PATRICK 184 03:08:33 M3  FOYER RURAL DE CUVIER TIPAC11
132 160  LEPRE  DANIEL 112 03:09:20 M2  
133 161  GIRARD  MICHEL 181 03:09:31 M3  
134 162  MANZONI  MARTIN 22 03:12:15 SE  
135 163  DORELLE  JEAN FRANCOIS 4 03:12:52 M2  JOGGING CLUB DRYAT
136 164  SELLEM  FAYCAL 12 03:13:08 SE  
137 165  ERTEM  ENGIN 314 03:13:12 SE  
138 167  LANDRIN  DAVID 9 03:13:59 SE  
139 168  MESNIER  FRANCK 317 03:14:07 M1  
140 170  PITTON  MARC 58 03:14:53 M1  
141 171  NASSIRI  NASROLLAH 131 03:15:26 M1  
142 172  CUENOT  ALEXANDRE 324 03:16:10 SE  
143 173  MOREL  JEROME 183 03:16:15 M1  
144 175  PETOT  DAMIEN 327 03:16:43 M2  
145 178  CATTENOZ  CYRILLE 147 03:18:39 M1  
146 179  PUGEAUT  ERIC 123 03:19:50 M1  
147 180  MISLIN  JEAN NOEL 332 03:21:39 M1  
148 181  BRUEL  GILLES 42 03:22:43 M3  
149 185  CLERGEOT  DAVID 310 03:25:02 SE  
150 188  MOUQUOD  SAMUEL 60 03:27:03 M1  
151 189  SIGU  CHRISTOPHE 334 03:28:06 M1  
152 190  BAUD  NICOLAS 139 03:28:06 M1  
153 193  JOURDAN  CHRISTIAN 85 03:28:51 M2  ALL JURA TRAIL
154 194  ESCOFFIER  ERIC 23 03:32:35 M2  
155 195  MAILLARD  DANIEL 120 03:35:20 M2  
156 202  CHAMBADE  STEPHANE 137 03:40:45 M1  GRAND CHALON ATHLETISME
157 203  DONDENA  HERVE 102 03:42:48 M2  
158 204  SKRABACZ  JEAN 150 03:42:51 M3  
159 206  CATTENOZ  CLEMENT 89 03:46:01 SE  
160 207  LOUTTE  DAMIEN 53 03:48:26 SE  JAMBE DE BOIS
161 213  CHASSEPOT  CHRISTOPHE 6 04:23:57 SE  

 

 

Les résultats vous sont offerts par

Télécharger en pdf

 

 

 

 

 

 

 

 

 

 

 

 

 

 

 

 

 

 

 

 

 

 

 

chronometrage,chronométrage, sportif, chrono, course, course à pied, trail, trails, couse nature, puce, U-DAG, loto